Siloam Springs, AR

4:02 AM CST on December 22, 2014 (GMT -0600)
Gentry AR Weather | Change Station
CLOSE
Current Station
Personal Weather Station
Location: Gentry, AR
Elevation: 1204 ft
Nearby Weather Stations

Elev 1204 ft 36.25 °N, 94.49 °W | Updated 5 minutes ago

Overcast
Overcast
43.0 °F
Feels Like 40 °F
N
5.0
Wind Variable Wind from SE
Gusts 8.0 mph

Today
High -- | Low -- °F
--% Chance of Precip.
Yesterday
High -- | Low -- °F
Precip. -- in
7:25 AM 5:07 PM
New Moon, 0% visible
Pressure 29.67 in
Visibility 10.0 miles
Clouds Overcast 2200 ft
Windchill 40 °F
Dew Point 42 °F
Humidity 96%
Rainfall 0.00 in
Snow Depth Not available.
UV 0 out of 12
Pollen 6.40 out of 12
Air Quality Not available.
Flu Activity Not available.
METAR KSLG 220955Z AUTO 14007KT 10SM OVC022 07/03 A2967 RMK AO1

More Conditions Fewer Conditions

Pressure 29.67 in
Visibility 10.0 miles
Clouds Overcast 2200 ft
Windchill 40 °F
Dew Point 42 °F
Humidity 96%
Rainfall 0.00 in
Snow Depth Not available.
UV 0 out of 12
Pollen 6.40 out of 12
Air Quality Not available.
Flu Activity Not available.
METAR KSLG 220955Z AUTO 14007KT 10SM OVC022 07/03 A2967 RMK AO1

More Conditions Fewer Conditions

Nowcast | as of 2:40 am CST on December 22, 2014

At 2:40 am...National Weather Service Doppler radars continued to detect patchy drizzle across portions of eastern Oklahoma and western Arkansas. Through 5:00 am...very light drizzle will continue across eastern Oklahoma and western Arkansas. Precipitation amounts will be minimal...with no more than a trace to a couple hundredths of an inch expected. With temperatures well above freezing...minor visibility reductions in the heaviest drizzle should be the only travel impacts.

×

10-Day Weather Forecast

Almanac

Astronomy

Dec. 22, 2014 Rise Set
Actual Time
Civil Twilight
Nautical Twilight
Astronomical Twilight
Moon
Length of Visible Light
Length of Day
Tomorrow will be .
, % of the Moon is Illuminated

Today's Extremes

State Highs State Lows

Community

WunderPhotos

Upload Photos

1,779,583 photos uploaded!

WunderBlogs® & News

Nearby

Air Quality

  Air Quality AQ Index Pollutant
Not available.

Snow Depth

Station Depth Elevation

Earthquake Activity

City Distance Mag. Time & Date
Minimum magnitude displayed is 2.5.

Coastal Water Temperatures

Place Temperature

Nearby Weather Stations